Time;durP1;ratioP1;P1;durP2;ratioP2;P2;SDS_P1;SDS_P2;PMS_P1;PMS_P2;Temp;Humidity;BMP_temperature;BMP_pressure;BME280_temperature;BME280_humidity;BME280_pressure;Samples;Min_cycle;Max_cycle;Signal;HPM_P1;HPM_P2
2022/07/07 00:00:20;;;;;;;6.38;6.07;;;;;;;23.17;74.38;99176.19;5049686;28;20206;-57
2022/07/07 00:02:48;;;;;;;6.45;6.05;;;;;;;23.16;74.59;99171.84;5049595;28;20592;-56
2022/07/07 00:05:15;;;;;;;6.85;6.30;;;;;;;23.17;74.53;99181.47;5049620;28;20199;-57
2022/07/07 00:07:42;;;;;;;8.27;6.20;;;;;;;23.15;74.61;99169.31;5049538;28;20728;-57
2022/07/07 00:10:10;;;;;;;6.82;6.30;;;;;;;23.07;74.85;99167.34;5049158;28;20214;-55
2022/07/07 00:12:37;;;;;;;6.80;6.40;;;;;;;23.06;74.74;99170.97;5049501;28;20197;-58
2022/07/07 00:15:05;;;;;;;6.93;6.30;;;;;;;23.02;74.65;99166.91;5049142;28;20203;-56
2022/07/07 00:17:34;;;;;;;6.38;6.07;;;;;;;23.02;74.66;99156.34;5046419;28;20219;-57
2022/07/07 00:20:02;;;;;;;6.05;5.72;;;;;;;23.10;73.90;99164.44;5049190;28;20192;-57
2022/07/07 00:22:29;;;;;;;6.53;6.10;;;;;;;23.08;73.34;99161.09;5049290;28;20584;-56
2022/07/07 00:24:56;;;;;;;6.20;5.90;;;;;;;23.06;73.47;99163.03;5048919;28;20200;-57
2022/07/07 00:27:22;;;;;;;6.28;5.72;;;;;;;23.16;73.04;99163.06;5049429;28;20640;-57
2022/07/07 00:29:49;;;;;;;6.55;6.20;;;;;;;23.18;72.54;99166.41;5053256;28;20585;-55
2022/07/07 00:32:16;;;;;;;6.30;5.82;;;;;;;23.20;72.13;99159.19;5053060;28;20203;-58
2022/07/07 00:34:44;;;;;;;6.25;5.68;;;;;;;23.24;71.17;99159.78;5053250;28;20197;-57
2022/07/07 00:37:11;;;;;;;6.10;5.80;;;;;;;23.24;71.44;99170.38;5052847;28;20738;-58
2022/07/07 00:39:38;;;;;;;6.05;5.75;;;;;;;23.26;71.10;99168.41;5052909;28;20204;-58
2022/07/07 00:42:06;;;;;;;6.53;6.05;;;;;;;23.27;71.37;99167.44;5052736;28;20200;-57
2022/07/07 00:44:33;;;;;;;6.15;5.85;;;;;;;23.25;70.86;99161.47;5052865;28;20207;-56
2022/07/07 00:47:00;;;;;;;6.28;5.57;;;;;;;23.22;70.63;99159.91;5052809;28;20196;-56
2022/07/07 00:49:27;;;;;;;5.93;5.53;;;;;;;23.22;70.51;99149.31;5052699;28;20192;-56
2022/07/07 00:51:55;;;;;;;6.18;5.70;;;;;;;23.17;70.86;99154.16;5052578;28;20691;-58
2022/07/07 00:54:22;;;;;;;6.25;5.95;;;;;;;23.17;70.76;99149.69;5052705;28;20195;-58
2022/07/07 00:56:49;;;;;;;5.80;5.53;;;;;;;23.21;70.32;99152.09;5052520;28;20224;-58
2022/07/07 00:59:16;;;;;;;6.07;5.78;;;;;;;23.17;70.48;99149.69;5052858;28;20203;-59
2022/07/07 01:01:44;;;;;;;5.97;5.60;;;;;;;23.21;70.15;99150.28;5052941;28;20638;-59
2022/07/07 01:04:13;;;;;;;6.28;5.80;;;;;;;23.19;70.16;99152.22;5052547;28;20196;-59
2022/07/07 01:06:40;;;;;;;6.38;5.97;;;;;;;23.06;70.52;99157.72;5052355;28;20200;-59
2022/07/07 01:09:09;;;;;;;6.40;6.10;;;;;;;23.04;71.07;99159.66;5052546;28;20200;-59
2022/07/07 01:11:47;;;;;;;6.20;5.80;;;;;;;23.06;70.72;99160.38;5052415;28;20207;-59
2022/07/07 01:14:14;;;;;;;6.10;5.72;;;;;;;22.96;70.86;99143.59;5052526;28;20210;-58
2022/07/07 01:16:41;;;;;;;5.90;5.60;;;;;;;23.01;70.94;99153.81;5052266;28;20250;-58
2022/07/07 01:19:08;;;;;;;6.47;6.05;;;;;;;23.02;70.92;99155.50;5051958;28;20199;-59
2022/07/07 01:21:47;;;;;;;6.18;5.75;;;;;;;23.03;70.79;99142.09;5052157;28;20207;-57
2022/07/07 01:24:16;;;;;;;5.82;5.50;;;;;;;23.07;70.50;99151.47;5052128;28;20201;-58
2022/07/07 01:26:43;;;;;;;6.00;5.70;;;;;;;22.96;70.87;99151.53;5052007;28;20197;-59
2022/07/07 01:29:10;;;;;;;6.45;5.95;;;;;;;22.97;71.25;99150.56;5051921;28;20251;-59
2022/07/07 01:31:37;;;;;;;5.65;5.35;;;;;;;22.99;70.97;99159.22;5051882;28;20200;-58
2022/07/07 01:34:04;;;;;;;6.22;5.93;;;;;;;22.99;70.80;99161.03;5051810;28;20232;-59
2022/07/07 01:36:31;;;;;;;6.45;6.05;;;;;;;23.02;70.70;99158.97;5051784;28;20228;-58
2022/07/07 01:38:58;;;;;;;6.60;5.93;;;;;;;22.97;70.86;99153.22;5051261;28;20197;-59
2022/07/07 01:41:26;;;;;;;9.77;5.82;;;;;;;22.91;70.98;99161.69;5051533;28;20736;-58
2022/07/07 01:43:53;;;;;;;6.43;6.13;;;;;;;22.95;71.58;99149.03;5052274;28;20593;-58
2022/07/07 01:46:20;;;;;;;6.60;6.05;;;;;;;22.93;71.39;99154.44;5051789;28;20197;-58
2022/07/07 01:48:47;;;;;;;6.10;5.55;;;;;;;22.96;71.94;99161.28;5051891;28;20203;-58
2022/07/07 01:51:14;;;;;;;5.80;5.47;;;;;;;23.01;71.55;99153.81;5051595;28;20262;-56
2022/07/07 01:53:41;;;;;;;6.50;6.10;;;;;;;23.03;71.41;99157.13;5051577;28;20204;-55
2022/07/07 01:56:08;;;;;;;6.10;5.75;;;;;;;23.01;71.46;99152.00;5051298;28;20303;-58
2022/07/07 01:58:37;;;;;;;6.35;5.95;;;;;;;22.95;72.08;99149.88;5051308;28;20196;-58
2022/07/07 02:01:04;;;;;;;6.35;5.95;;;;;;;22.92;72.23;99152.75;5051342;28;20201;-58
2022/07/07 02:03:31;;;;;;;5.70;5.50;;;;;;;22.89;72.51;99150.41;5051455;28;20192;-59
2022/07/07 02:05:58;;;;;;;6.20;5.70;;;;;;;22.87;72.64;99149.69;5051550;28;20638;-58
2022/07/07 02:08:25;;;;;;;8.00;6.47;;;;;;;22.88;72.89;99158.47;5051391;28;20201;-58
2022/07/07 02:13:37;;;;;;;6.10;5.80;;;;;;;22.87;72.88;99152.34;5051334;28;20791;-58
2022/07/07 02:16:05;;;;;;;6.10;5.70;;;;;;;22.84;73.46;99157.03;5051027;28;20196;-55
2022/07/07 02:18:35;;;;;;;6.05;5.75;;;;;;;22.77;73.62;99160.22;5051108;28;20206;-55
2022/07/07 02:21:03;;;;;;;6.90;6.28;;;;;;;22.71;73.45;99143.97;5051144;28;20239;-58
2022/07/07 02:23:30;;;;;;;6.10;5.78;;;;;;;22.65;73.89;99131.28;5051003;28;20200;-58
2022/07/07 02:25:57;;;;;;;6.68;6.28;;;;;;;22.81;73.62;99160.78;5050915;28;20204;-58
2022/07/07 02:28:24;;;;;;;6.88;6.28;;;;;;;22.77;73.87;99162.88;5050936;28;20197;-58
2022/07/07 02:30:53;;;;;;;6.75;6.18;;;;;;;22.78;73.95;99169.00;5051083;28;20740;-59
2022/07/07 02:33:21;;;;;;;6.75;6.25;;;;;;;22.77;74.06;99168.16;5051064;28;20696;-57
2022/07/07 02:35:49;;;;;;;8.18;7.50;;;;;;;22.73;74.56;99165.84;5057790;28;20207;-58
2022/07/07 02:38:16;;;;;;;9.50;8.57;;;;;;;22.77;74.68;99169.97;5055768;28;20224;-58
2022/07/07 02:40:43;;;;;;;7.13;6.50;;;;;;;22.77;74.71;99165.50;5059045;28;20231;-58
2022/07/07 02:43:12;;;;;;;7.10;6.60;;;;;;;22.79;74.87;99173.31;5060305;28;20188;-59
2022/07/07 02:45:40;;;;;;;6.22;5.93;;;;;;;22.80;74.39;99170.53;5058852;28;20196;-59
2022/07/07 02:48:09;;;;;;;6.60;6.25;;;;;;;22.77;75.15;99172.63;5058378;28;20227;-59
2022/07/07 02:50:36;;;;;;;8.88;8.27;;;;;;;22.76;75.19;99177.06;5055858;28;20284;-59
2022/07/07 02:53:03;;;;;;;6.88;6.10;;;;;;;22.78;75.24;99174.28;5058838;28;20660;-60
2022/07/07 02:55:31;;;;;;;7.25;6.60;;;;;;;22.85;74.94;99172.78;5060482;28;20303;-56
2022/07/07 02:57:58;;;;;;;6.15;5.85;;;;;;;22.88;74.70;99177.84;5058720;28;20639;-58
2022/07/07 03:00:25;;;;;;;7.97;7.47;;;;;;;22.90;74.87;99175.06;5058651;28;20202;-56
2022/07/07 03:02:52;;;;;;;6.63;6.13;;;;;;;22.86;75.04;99174.47;5060369;28;20282;-58
2022/07/07 03:05:21;;;;;;;6.70;6.20;;;;;;;22.88;74.90;99174.34;5058200;28;20192;-57
2022/07/07 03:07:47;;;;;;;6.47;6.18;;;;;;;22.86;74.87;99177.13;5058086;28;20192;-58
2022/07/07 03:10:15;;;;;;;7.28;6.78;;;;;;;22.81;74.94;99166.06;5054454;28;20209;-59
2022/07/07 03:12:42;;;;;;;7.05;6.65;;;;;;;22.93;74.84;99167.69;5058499;28;20215;-59
2022/07/07 03:15:10;;;;;;;6.30;6.00;;;;;;;22.90;74.78;99161.84;5059309;28;20287;-59
2022/07/07 03:17:41;;;;;;;6.97;6.47;;;;;;;23.06;74.36;99170.13;5059548;28;20300;-60
2022/07/07 03:20:09;;;;;;;8.30;7.50;;;;;;;23.02;74.30;99177.50;5054872;28;20284;-60
2022/07/07 03:22:38;;;;;;;6.40;6.10;;;;;;;23.07;73.71;99172.66;5058397;28;20199;-60
2022/07/07 03:25:06;;;;;;;7.15;6.55;;;;;;;23.07;73.42;99175.28;5059720;28;20196;-62
2022/07/07 03:27:33;;;;;;;8.45;7.88;;;;;;;23.10;73.12;99169.75;5057613;28;20199;-56
2022/07/07 03:30:00;;;;;;;6.65;6.25;;;;;;;23.21;73.02;99167.97;5056226;28;20198;-56
2022/07/07 03:32:27;;;;;;;8.27;7.68;;;;;;;23.27;72.85;99170.91;5053367;28;20277;-56
2022/07/07 03:34:54;;;;;;;7.18;6.68;;;;;;;23.30;71.41;99175.97;5056170;28;20195;-56
2022/07/07 03:37:21;;;;;;;7.32;6.70;;;;;;;23.40;70.83;99165.41;5055508;28;20967;-56
2022/07/07 03:39:49;;;;;;;8.38;7.30;;;;;;;23.55;70.17;99168.56;5054276;28;20203;-55
2022/07/07 03:42:16;;;;;;;6.43;5.97;;;;;;;23.56;69.41;99157.84;5055683;28;20202;-56
2022/07/07 03:44:43;;;;;;;7.30;6.80;;;;;;;23.77;68.88;99173.66;5056687;28;20200;-56
2022/07/07 03:47:11;;;;;;;6.28;5.97;;;;;;;23.82;68.20;99168.75;5054835;28;20195;-56
2022/07/07 03:49:38;;;;;;;11.77;11.00;;;;;;;23.93;67.85;99173.13;5054665;28;20197;-56
2022/07/07 03:52:06;;;;;;;6.00;5.70;;;;;;;24.09;66.75;99165.47;5047130;28;20196;-56
2022/07/07 03:54:33;;;;;;;7.53;6.38;;;;;;;24.22;66.00;99174.03;5057503;28;20673;-60
2022/07/07 03:57:01;;;;;;;6.60;6.20;;;;;;;24.83;64.51;99181.69;5057904;28;20223;-60
2022/07/07 03:59:28;;;;;;;9.57;8.85;;;;;;;26.30;58.19;99187.88;5047162;28;20192;-60
2022/07/07 04:01:55;;;;;;;6.55;6.07;;;;;;;27.80;53.29;99185.75;5054472;28;20200;-61
2022/07/07 04:04:22;;;;;;;6.20;5.80;;;;;;;29.24;48.42;99181.69;5055861;28;20210;-60
2022/07/07 04:06:49;;;;;;;5.82;5.38;;;;;;;30.76;44.29;99190.94;5055296;28;20239;-61
2022/07/07 04:09:16;;;;;;;6.28;5.45;;;;;;;31.97;41.51;99196.84;5053595;28;20287;-57
2022/07/07 04:11:43;;;;;;;6.43;5.95;;;;;;;33.18;38.98;99201.34;5051670;28;20212;-54
2022/07/07 04:14:11;;;;;;;7.22;6.63;;;;;;;33.53;38.05;99204.84;5052487;28;20607;-56
2022/07/07 04:16:38;;;;;;;7.22;6.60;;;;;;;33.75;36.67;99214.53;5056291;28;20203;-56
2022/07/07 04:19:05;;;;;;;5.00;4.63;;;;;;;33.77;36.80;99215.16;5056334;28;20200;-56
2022/07/07 04:21:34;;;;;;;5.43;4.95;;;;;;;33.90;36.01;99200.91;5060110;28;20206;-61
2022/07/07 04:24:01;;;;;;;5.75;5.30;;;;;;;34.17;36.09;99216.16;5055940;28;20233;-56
2022/07/07 04:26:28;;;;;;;5.10;4.80;;;;;;;34.37;35.58;99215.38;5048254;28;20199;-54
2022/07/07 04:28:55;;;;;;;7.00;4.80;;;;;;;34.71;35.02;99228.69;5059063;28;20288;-54
2022/07/07 04:31:24;;;;;;;4.82;4.60;;;;;;;35.44;33.87;99226.81;5057878;28;20203;-55
2022/07/07 04:33:51;;;;;;;4.57;4.38;;;;;;;35.83;33.46;99234.00;5061935;28;20211;-55
2022/07/07 04:36:17;;;;;;;4.85;4.65;;;;;;;36.65;32.50;99229.66;5055852;28;21313;-59
2022/07/07 04:38:44;;;;;;;4.57;4.28;;;;;;;37.21;31.43;99223.41;5060834;28;20327;-58
2022/07/07 04:41:11;;;;;;;8.05;5.03;;;;;;;37.54;30.79;99234.72;5059304;28;20752;-59
2022/07/07 04:43:38;;;;;;;4.65;4.25;;;;;;;37.18;31.51;99224.66;5056301;28;20206;-59
2022/07/07 04:46:05;;;;;;;4.65;4.22;;;;;;;37.63;30.21;99227.97;5057661;28;20202;-60
2022/07/07 04:48:34;;;;;;;6.35;4.63;;;;;;;37.90;32.08;99224.94;5055965;28;20198;-62
2022/07/07 04:51:01;;;;;;;8.55;5.00;;;;;;;38.31;30.28;99224.19;5056965;28;20196;-62
2022/07/07 04:53:28;;;;;;;5.50;4.15;;;;;;;38.03;30.43;99228.31;5055434;28;20196;-54
2022/07/07 04:55:55;;;;;;;4.97;4.15;;;;;;;38.37;29.95;99223.31;5053859;28;20287;-55
2022/07/07 04:58:22;;;;;;;4.75;4.35;;;;;;;38.14;29.43;99218.63;5055555;28;20218;-55
2022/07/07 05:00:49;;;;;;;7.85;4.10;;;;;;;38.70;29.49;99226.34;5054666;28;20227;-63
2022/07/07 05:03:16;;;;;;;5.85;4.10;;;;;;;38.51;30.06;99230.16;5063296;28;20282;-62
2022/07/07 05:05:44;;;;;;;8.25;3.95;;;;;;;38.08;30.00;99223.06;5058152;28;20677;-62
2022/07/07 05:08:11;;;;;;;5.80;3.40;;;;;;;38.45;29.68;99220.25;5059520;28;20281;-62
2022/07/07 05:10:38;;;;;;;4.40;4.03;;;;;;;39.06;28.46;99227.22;5051667;28;20204;-62
2022/07/07 05:13:05;;;;;;;4.47;3.72;;;;;;;38.96;29.03;99224.25;5048376;28;20204;-55
2022/07/07 05:15:32;;;;;;;5.70;3.53;;;;;;;39.17;28.28;99229.13;5050826;28;20273;-55
2022/07/07 05:17:58;;;;;;;3.45;3.35;;;;;;;39.21;28.14;99224.88;5052152;28;20610;-55
2022/07/07 05:20:25;;;;;;;4.65;3.90;;;;;;;38.93;28.50;99222.03;5053682;28;20196;-55
2022/07/07 05:22:54;;;;;;;3.88;3.53;;;;;;;40.00;27.57;99230.69;5059802;28;20187;-54
2022/07/07 05:25:21;;;;;;;4.13;3.70;;;;;;;40.48;26.79;99230.28;5057776;28;20204;-55
2022/07/07 05:27:48;;;;;;;3.65;3.45;;;;;;;40.51;26.82;99232.50;5060409;28;20278;-55
2022/07/07 05:30:16;;;;;;;4.10;3.70;;;;;;;40.09;27.00;99224.63;5062352;28;20623;-56
2022/07/07 05:32:43;;;;;;;5.78;3.88;;;;;;;39.63;27.51;99235.59;5061305;28;20634;-55
2022/07/07 05:35:10;;;;;;;4.22;3.88;;;;;;;40.00;27.18;99230.69;5060323;28;20223;-55
2022/07/07 05:37:37;;;;;;;5.35;3.40;;;;;;;40.02;27.04;99229.38;5059807;28;20239;-55
2022/07/07 05:40:07;;;;;;;5.75;3.70;;;;;;;39.71;27.57;99236.06;5059078;28;20201;-57
2022/07/07 05:42:34;;;;;;;3.72;3.40;;;;;;;39.71;27.46;99235.25;5061604;28;20199;-56
2022/07/07 05:45:01;;;;;;;5.88;3.78;;;;;;;38.35;28.62;99241.69;5057149;28;20200;-55
2022/07/07 05:47:28;;;;;;;3.85;3.55;;;;;;;38.10;29.65;99234.50;5060501;28;20191;-54
2022/07/07 05:49:55;;;;;;;3.47;3.17;;;;;;;38.26;29.40;99237.63;5061881;28;20580;-62
2022/07/07 05:52:22;;;;;;;3.50;3.30;;;;;;;38.70;28.83;99241.81;5059896;28;20671;-62
2022/07/07 05:54:49;;;;;;;4.65;3.40;;;;;;;38.60;29.03;99245.09;5062489;28;20574;-62
2022/07/07 05:57:17;;;;;;;3.83;3.47;;;;;;;38.53;28.79;99238.94;5054824;28;20228;-62
2022/07/07 05:59:44;;;;;;;3.50;3.20;;;;;;;38.50;29.07;99239.34;5052537;28;20238;-62
2022/07/07 06:02:11;;;;;;;5.68;3.45;;;;;;;38.65;28.27;99252.53;5051984;28;20231;-62
2022/07/07 06:04:38;;;;;;;3.78;3.50;;;;;;;38.35;28.97;99242.50;5051765;28;20200;-55
2022/07/07 06:07:05;;;;;;;3.45;2.90;;;;;;;38.32;28.80;99234.00;5056142;28;20676;-56
2022/07/07 06:09:32;;;;;;;3.50;3.10;;;;;;;38.41;28.59;99232.59;5051373;28;20196;-56
2022/07/07 06:11:59;;;;;;;3.25;3.05;;;;;;;38.57;28.16;99242.00;5051321;28;20197;-55
2022/07/07 06:14:28;;;;;;;4.25;2.90;;;;;;;38.39;28.99;99246.38;5051390;28;20207;-55
2022/07/07 06:16:55;;;;;;;3.20;3.00;;;;;;;38.60;28.94;99247.81;5051269;28;20200;-54
2022/07/07 06:19:22;;;;;;;4.78;3.13;;;;;;;38.48;28.03;99246.91;5049287;28;20230;-55
2022/07/07 06:21:49;;;;;;;3.13;2.92;;;;;;;38.82;27.92;99251.63;5050134;28;20203;-54
2022/07/07 06:24:16;;;;;;;3.42;3.03;;;;;;;38.81;27.77;99252.69;5050237;28;20200;-55
2022/07/07 06:26:43;;;;;;;3.70;2.63;;;;;;;38.80;27.90;99251.03;5049714;28;20198;-55
2022/07/07 06:29:10;;;;;;;3.10;2.60;;;;;;;38.73;28.44;99255.72;5057186;28;20198;-56
2022/07/07 06:31:38;;;;;;;2.95;2.70;;;;;;;37.87;29.47;99247.06;5060842;28;20196;-55
2022/07/07 06:34:05;;;;;;;2.97;2.55;;;;;;;36.50;30.43;99243.47;5069883;28;20316;-56
2022/07/07 06:36:32;;;;;;;4.30;2.85;;;;;;;36.88;30.47;99234.50;5069680;28;20200;-54
2022/07/07 06:38:59;;;;;;;4.28;2.83;;;;;;;36.53;30.56;99231.38;5064946;28;20220;-62
2022/07/07 06:41:35;;;;;;;3.55;2.92;;;;;;;37.21;30.34;99239.63;5055930;28;20253;-61
2022/07/07 06:44:02;;;;;;;3.35;3.10;;;;;;;36.95;30.54;99240.66;5060729;28;20281;-61
2022/07/07 06:46:29;;;;;;;6.32;3.13;;;;;;;35.85;31.46;99242.75;5058944;28;20287;-62
2022/07/07 06:48:57;;;;;;;6.95;3.10;;;;;;;35.93;31.49;99236.25;5058215;28;20193;-61
2022/07/07 06:51:24;;;;;;;3.03;2.83;;;;;;;35.14;32.15;99236.41;5057603;28;20196;-54
2022/07/07 06:53:51;;;;;;;4.35;2.85;;;;;;;35.17;32.29;99239.53;5058462;28;20196;-56
2022/07/07 06:56:18;;;;;;;2.90;2.70;;;;;;;35.19;32.42;99240.16;5052612;28;20203;-55
2022/07/07 06:58:45;;;;;;;3.05;2.72;;;;;;;35.18;32.62;99232.25;5058967;28;20232;-55
2022/07/07 07:01:12;;;;;;;3.35;3.05;;;;;;;35.29;32.24;99235.19;5058055;28;20196;-55
2022/07/07 07:03:39;;;;;;;3.72;3.38;;;;;;;35.24;32.54;99234.09;5055765;28;20201;-55
2022/07/07 07:06:07;;;;;;;4.05;3.70;;;;;;;35.70;32.62;99228.63;5051895;28;20208;-57
2022/07/07 07:08:35;;;;;;;3.95;3.72;;;;;;;35.88;32.08;99234.22;5050901;28;20205;-56
2022/07/07 07:11:03;;;;;;;4.78;2.92;;;;;;;35.67;32.13;99226.34;5069927;28;20206;-57
2022/07/07 07:13:30;;;;;;;4.88;3.20;;;;;;;35.79;31.94;99224.66;5070016;28;20294;-57
2022/07/07 07:15:57;;;;;;;3.55;3.22;;;;;;;35.40;32.05;99233.69;5070770;28;20206;-55
2022/07/07 07:18:24;;;;;;;2.95;2.85;;;;;;;35.82;31.46;99228.81;5068924;28;20229;-56
2022/07/07 07:20:51;;;;;;;3.35;3.03;;;;;;;35.75;31.27;99234.25;5069671;28;20196;-57
2022/07/07 07:23:19;;;;;;;4.72;3.17;;;;;;;35.59;31.57;99226.59;5069897;28;20560;-58
2022/07/07 07:25:46;;;;;;;7.22;3.28;;;;;;;35.42;31.98;99228.09;5056956;28;20230;-56
2022/07/07 07:28:13;;;;;;;8.55;4.03;;;;;;;35.19;32.71;99234.75;5049415;28;20679;-57
2022/07/07 07:30:40;;;;;;;4.43;3.00;;;;;;;35.19;32.19;99228.53;5049202;28;20211;-56
2022/07/07 07:33:07;;;;;;;3.17;3.08;;;;;;;34.91;32.26;99224.16;5048911;28;20196;-56
2022/07/07 07:35:34;;;;;;;5.25;3.33;;;;;;;35.10;32.76;99238.72;5048804;28;20328;-57
2022/07/07 07:38:01;;;;;;;5.03;3.42;;;;;;;35.35;31.84;99238.06;5048752;28;20703;-57
2022/07/07 07:40:29;;;;;;;3.67;2.90;;;;;;;35.15;32.01;99235.38;5049648;28;20203;-56
2022/07/07 07:42:56;;;;;;;5.00;3.17;;;;;;;34.95;32.19;99238.06;5049732;28;20193;-57
2022/07/07 07:45:23;;;;;;;3.50;3.30;;;;;;;34.73;32.69;99232.03;5049732;28;20594;-56
2022/07/07 07:47:50;;;;;;;7.28;3.33;;;;;;;35.07;32.73;99239.13;5049567;28;20208;-56
2022/07/07 07:50:20;;;;;;;3.60;3.30;;;;;;;34.95;32.34;99236.22;5049475;28;20200;-56
2022/07/07 07:52:48;;;;;;;3.95;3.30;;;;;;;35.65;31.76;99223.88;5049564;28;20658;-56
2022/07/07 07:55:16;;;;;;;6.72;3.47;;;;;;;35.99;30.99;99230.84;5049409;28;20201;-56
2022/07/07 07:57:45;;;;;;;3.75;3.55;;;;;;;36.33;30.13;99226.13;5049618;28;20235;-56
2022/07/07 08:00:15;;;;;;;4.63;3.75;;;;;;;36.88;29.78;99221.78;5049473;28;20571;-57
2022/07/07 08:02:43;;;;;;;3.75;3.47;;;;;;;37.23;29.12;99227.53;5048867;28;20193;-56
2022/07/07 08:05:11;;;;;;;5.03;2.97;;;;;;;37.21;28.92;99213.41;5049346;28;20736;-56
2022/07/07 08:07:38;;;;;;;3.60;3.10;;;;;;;37.41;28.36;99226.72;5049337;28;20246;-56
2022/07/07 08:10:08;;;;;;;8.40;2.85;;;;;;;38.04;28.33;99218.28;5058479;28;20200;-58
2022/07/07 08:12:34;;;;;;;3.60;3.30;;;;;;;38.79;27.55;99243.13;5054507;28;20699;-56
2022/07/07 08:15:03;;;;;;;3.95;3.60;;;;;;;38.99;26.77;99240.09;5056967;28;20206;-57
2022/07/07 08:17:30;;;;;;;10.05;4.35;;;;;;;39.21;26.39;99235.75;5056898;28;20202;-56
2022/07/07 08:19:57;;;;;;;6.93;3.50;;;;;;;39.36;26.85;99238.81;5058731;28;20669;-56
2022/07/07 08:22:24;;;;;;;5.13;3.72;;;;;;;39.80;25.81;99242.78;5057277;28;20720;-63
2022/07/07 08:24:51;;;;;;;6.88;3.67;;;;;;;38.95;26.24;99236.16;5057992;28;20192;-62
2022/07/07 08:27:18;;;;;;;4.45;4.15;;;;;;;39.03;26.99;99225.00;5064602;28;20191;-62
2022/07/07 08:29:45;;;;;;;4.00;3.70;;;;;;;39.41;26.76;99230.78;5067132;28;20192;-61
2022/07/07 08:32:14;;;;;;;3.88;3.63;;;;;;;39.20;26.42;99231.38;5070471;28;20202;-63
2022/07/07 08:34:41;;;;;;;3.67;3.38;;;;;;;38.57;27.11;99229.28;5070260;28;20294;-62
2022/07/07 08:37:08;;;;;;;7.25;5.43;;;;;;;38.00;27.54;99223.34;5055570;28;20247;-63
2022/07/07 08:39:35;;;;;;;4.57;3.70;;;;;;;38.17;27.05;99218.13;5049802;28;20228;-63
2022/07/07 08:42:03;;;;;;;8.27;5.60;;;;;;;38.53;27.12;99225.38;5049400;28;20206;-63
2022/07/07 08:44:30;;;;;;;9.65;8.32;;;;;;;37.80;27.71;99220.06;5049378;28;20208;-63
2022/07/07 08:46:57;;;;;;;4.40;4.10;;;;;;;37.03;28.49;99216.84;5049659;28;20192;-63
2022/07/07 08:49:27;;;;;;;9.32;3.60;;;;;;;36.31;29.44;99217.41;5051416;28;20216;-62
2022/07/07 08:51:56;;;;;;;7.28;4.63;;;;;;;36.06;29.92;99217.28;5053207;28;20246;-62
2022/07/07 08:54:25;;;;;;;4.20;3.92;;;;;;;35.72;30.22;99212.22;5053430;28;20716;-63
2022/07/07 08:56:52;;;;;;;3.50;3.30;;;;;;;35.55;30.43;99211.88;5052802;28;20578;-62
2022/07/07 08:59:19;;;;;;;12.73;8.48;;;;;;;35.61;30.54;99208.31;5052533;28;20220;-62
2022/07/07 09:01:55;;;;;;;9.18;5.10;;;;;;;35.95;30.10;99210.69;5052711;28;20199;-63
2022/07/07 09:04:22;;;;;;;6.28;5.57;;;;;;;35.98;30.25;99212.13;5052917;28;20199;-62
2022/07/07 09:06:58;;;;;;;13.45;6.47;;;;;;;35.87;30.40;99213.66;5053266;28;20648;-62
2022/07/07 09:09:40;;;;;;;4.72;4.20;;;;;;;36.17;30.08;99210.38;5052780;28;20192;-62
2022/07/07 09:12:09;;;;;;;6.28;5.47;;;;;;;36.46;29.97;99219.81;5055258;28;20284;-62
2022/07/07 09:14:38;;;;;;;12.68;9.90;;;;;;;36.35;29.46;99213.19;5062086;28;20659;-63
2022/07/07 09:17:16;;;;;;;5.38;4.95;;;;;;;36.56;29.58;99212.88;5060005;28;20196;-62
2022/07/07 09:19:44;;;;;;;6.43;4.47;;;;;;;36.51;29.65;99196.47;5057265;28;20307;-63
2022/07/07 09:22:13;;;;;;;6.20;4.20;;;;;;;36.59;29.36;99195.34;5061622;28;20286;-62
2022/07/07 09:24:56;;;;;;;4.72;4.30;;;;;;;36.43;29.33;99204.84;5059754;28;20196;-63
2022/07/07 09:27:23;;;;;;;5.43;4.20;;;;;;;35.99;30.20;99192.19;5061842;28;20192;-63
2022/07/07 09:29:50;;;;;;;3.88;3.60;;;;;;;35.81;30.11;99197.44;5072615;28;20200;-61
2022/07/07 09:32:17;;;;;;;4.35;3.95;;;;;;;35.65;31.32;99198.75;5072464;28;20203;-62
2022/07/07 09:34:44;;;;;;;4.07;3.70;;;;;;;35.63;30.57;99206.22;5065609;28;20287;-61
2022/07/07 09:39:58;;;;;;;3.55;3.38;;;;;;;35.48;30.64;99186.75;5052441;28;20301;-61
2022/07/07 09:42:27;;;;;;;4.30;4.10;;;;;;;35.46;30.57;99181.56;5052131;28;20207;-62
2022/07/07 09:44:56;;;;;;;5.13;4.20;;;;;;;35.79;30.67;99186.03;5052091;28;20189;-61
2022/07/07 09:47:24;;;;;;;4.03;3.88;;;;;;;35.90;30.26;99182.66;5048823;28;20232;-61
2022/07/07 09:50:02;;;;;;;4.68;4.20;;;;;;;36.01;30.55;99179.25;5034589;28;20227;-61
2022/07/07 09:52:31;;;;;;;4.40;4.00;;;;;;;35.99;30.42;99176.81;5031418;28;20316;-61
2022/07/07 09:54:59;;;;;;;4.32;4.13;;;;;;;36.10;30.07;99159.09;5031774;28;20308;-61
2022/07/07 09:57:27;;;;;;;4.65;3.97;;;;;;;36.38;29.46;99167.63;5040505;28;20759;-62
2022/07/07 09:59:55;;;;;;;4.20;4.00;;;;;;;36.45;29.51;99164.91;5051152;28;20224;-63
2022/07/07 10:02:24;;;;;;;3.60;3.50;;;;;;;36.45;29.29;99169.47;5051306;28;20232;-62
2022/07/07 10:04:54;;;;;;;3.80;3.65;;;;;;;36.36;29.96;99163.50;5052023;28;20232;-63
2022/07/07 10:07:23;;;;;;;3.85;3.65;;;;;;;36.32;29.81;99167.69;5054479;28;20204;-63
2022/07/07 10:09:53;;;;;;;4.63;4.43;;;;;;;36.17;29.32;99156.31;5055758;28;20223;-63
2022/07/07 10:12:26;;;;;;;5.60;4.30;;;;;;;35.94;30.25;99155.00;5059258;28;20188;-62
2022/07/07 10:14:59;;;;;;;4.60;3.90;;;;;;;36.03;30.27;99159.09;5062737;28;20192;-56
2022/07/07 10:17:28;;;;;;;4.50;4.05;;;;;;;35.90;30.11;99150.25;5062716;28;20787;-56
2022/07/07 10:19:56;;;;;;;4.47;4.10;;;;;;;35.78;30.16;99160.88;5060201;28;20311;-59
2022/07/07 10:22:27;;;;;;;4.60;4.40;;;;;;;35.67;30.21;99145.34;5051880;28;20188;-58
2022/07/07 10:24:56;;;;;;;9.50;4.60;;;;;;;35.49;30.63;99164.94;5053972;28;20197;-57
2022/07/07 10:27:24;;;;;;;6.57;4.30;;;;;;;35.24;31.14;99153.97;5051720;28;20203;-58
2022/07/07 10:29:53;;;;;;;5.53;3.80;;;;;;;35.23;31.11;99157.72;5055225;28;20200;-56
2022/07/07 10:32:30;;;;;;;18.58;5.20;;;;;;;35.22;30.85;99145.25;5056778;28;20196;-56
2022/07/07 10:34:59;;;;;;;3.70;3.50;;;;;;;35.02;30.72;99141.78;5055944;28;20188;-56
2022/07/07 10:37:27;;;;;;;3.70;3.40;;;;;;;34.90;31.29;99144.28;5061212;28;20984;-56
2022/07/07 10:39:56;;;;;;;6.07;4.10;;;;;;;35.17;31.73;99139.69;5058187;28;20684;-57
2022/07/07 10:42:39;;;;;;;6.32;4.10;;;;;;;35.06;31.85;99143.03;5059518;28;20192;-56
2022/07/07 10:45:08;;;;;;;8.60;4.53;;;;;;;35.04;31.52;99147.81;5058055;28;20412;-57
2022/07/07 10:47:36;;;;;;;3.95;3.53;;;;;;;34.78;31.49;99134.34;5058460;28;20204;-57
2022/07/07 10:50:22;;;;;;;4.35;4.15;;;;;;;34.59;31.39;99133.31;5059311;28;20270;-57
2022/07/07 10:52:49;;;;;;;10.38;4.13;;;;;;;34.53;31.70;99137.66;5058919;28;20644;-57
2022/07/07 10:55:17;;;;;;;4.90;4.50;;;;;;;34.51;32.13;99136.22;5057858;28;20203;-57
2022/07/07 10:57:46;;;;;;;5.15;4.32;;;;;;;34.32;31.78;99137.00;5059193;28;20192;-56
2022/07/07 11:00:19;;;;;;;4.60;4.22;;;;;;;34.21;32.55;99143.81;5059711;28;20755;-56
2022/07/07 11:02:49;;;;;;;4.10;3.90;;;;;;;34.37;32.14;99129.97;5059269;28;20209;-57
2022/07/07 11:05:33;;;;;;;5.90;4.25;;;;;;;34.30;32.23;99125.63;5057383;28;20271;-57
2022/07/07 11:08:12;;;;;;;4.65;4.30;;;;;;;34.23;32.55;99112.09;5056265;28;20200;-56
2022/07/07 11:10:55;;;;;;;5.43;4.13;;;;;;;34.07;32.56;99115.22;5055591;28;20275;-56
2022/07/07 11:13:29;;;;;;;3.85;3.75;;;;;;;34.16;32.76;99122.06;5056414;28;20193;-56
2022/07/07 11:16:12;;;;;;;4.10;3.80;;;;;;;34.02;32.62;99123.91;5057636;28;20198;-56
2022/07/07 11:18:40;;;;;;;4.75;4.38;;;;;;;34.03;32.81;99122.88;5055497;28;20243;-56
2022/07/07 11:21:08;;;;;;;3.95;3.75;;;;;;;33.86;33.16;99124.28;5058206;28;20203;-56
2022/07/07 11:23:48;;;;;;;4.38;3.95;;;;;;;33.83;33.46;99119.31;5059503;28;20214;-56
2022/07/07 11:26:19;;;;;;;4.43;3.83;;;;;;;34.13;33.25;99109.00;5059419;28;20188;-57
2022/07/07 11:28:46;;;;;;;5.22;3.92;;;;;;;34.30;32.69;99112.16;5058829;28;20584;-56
2022/07/07 11:31:15;;;;;;;4.40;3.95;;;;;;;34.16;32.87;99108.59;5057171;28;20200;-56
2022/07/07 11:33:43;;;;;;;4.43;4.22;;;;;;;33.96;33.31;99107.75;5058783;28;20286;-57
2022/07/07 11:36:12;;;;;;;4.03;3.70;;;;;;;33.93;32.82;99111.66;5058919;28;20276;-56
2022/07/07 11:38:40;;;;;;;4.53;4.22;;;;;;;33.75;32.79;99104.13;5054107;28;20228;-57
2022/07/07 11:41:07;;;;;;;4.82;3.92;;;;;;;33.84;33.24;99108.34;5053007;28;20432;-62
2022/07/07 11:43:37;;;;;;;4.13;3.95;;;;;;;33.98;32.43;99111.84;5066616;28;20226;-62